Sun, 12 Jul 2020 20:24:34 UTC | login

Information for RPM libutempter-1.1.6-4.el7.x86_64.rpm

ID325
Namelibutempter
Version1.1.6
Release4.el7
Epoch
Archx86_64
Build Time2014-06-10 02:03:46 GMT
External Repositorycentos7-os
Size49749
8e28747e6a84b84af7d78c84cd8cd5e8
Component of
Page:
1 through 50 of 42514 >>>
Buildroot descending sort Created State
cloud7-openstack-rocky-el7-build-78906-456046 2020-07-10 13:43:59 expired
cloud7-openstack-rocky-el7-build-78905-456046 2020-07-10 13:41:37 expired
cloud7-openstack-stein-el7-build-78904-456049 2020-07-10 13:19:57 expired
cloud7-openstack-train-el7-build-78903-456503 2020-07-10 13:17:53 expired
cloud7-openstack-stein-el7-build-78901-456049 2020-07-10 13:17:22 expired
cloud7-openstack-train-el7-build-78899-456503 2020-07-10 13:14:56 expired
storage7-samba-411-el7-build-78897-456440 2020-07-10 13:02:50 expired
storage7-samba-411-el7-build-78895-456440 2020-07-10 13:00:33 expired
virt7-xen-common-el7-build-78894-456487 2020-07-10 12:56:27 expired
virt7-xen-common-el7-build-78893-456487 2020-07-10 12:56:26 expired
virt7-xen-common-el7-build-78892-456487 2020-07-10 12:53:52 expired
storage7-samba-411-el7-build-78890-456440 2020-07-10 12:10:44 expired
storage7-samba-411-el7-build-78888-456440 2020-07-10 12:08:08 expired
virt7-xen-410-el7-build-78887-456482 2020-07-10 11:43:29 expired
virt7-xen-410-el7-build-78886-456482 2020-07-10 11:40:55 expired
virt7-xen-412-el7-build-78876-456484 2020-07-10 11:03:17 expired
virt7-xen-412-el7-build-78875-456484 2020-07-10 11:01:00 expired
cloud7-openstack-train-el7-build-78870-456048 2020-07-10 10:10:29 expired
cloud7-openstack-train-el7-build-78869-456048 2020-07-10 09:36:31 expired
cloud7-openstack-train-el7-build-78868-456048 2020-07-10 09:34:29 expired
cloud7-openstack-queens-el7-build-78866-456047 2020-07-10 06:34:50 expired
cloud7-openstack-queens-el7-build-78865-456047 2020-07-10 06:32:25 expired
storage7-samba-411-el7-build-78856-456440 2020-07-10 03:42:06 expired
storage7-samba-411-el7-build-78854-456440 2020-07-10 03:39:53 expired
cloud7-openstack-queens-el7-build-78853-455570 2020-07-09 15:48:29 expired
cloud7-openstack-train-el7-build-78850-455520 2020-07-08 11:46:15 expired
cloud7-openstack-train-el7-build-78848-455520 2020-07-08 11:43:35 expired
cloud7-openstack-train-el7-build-78846-455520 2020-07-08 11:42:34 expired
cloud7-openstack-train-el7-build-78845-455520 2020-07-08 09:56:22 expired
cloud7-openstack-train-el7-build-78843-455520 2020-07-08 09:53:23 expired
cloud7-openstack-train-el7-build-78841-455520 2020-07-08 09:52:52 expired
sclo7-sclo-php73-sclo-el7-build-78840-455525 2020-07-08 07:23:22 expired
sclo7-sclo-php72-sclo-el7-build-78837-455523 2020-07-08 07:21:15 expired
sclo7-sclo-php73-sclo-el7-build-78836-455525 2020-07-08 07:21:05 expired
sclo7-sclo-php72-sclo-el7-build-78835-455403 2020-07-08 06:50:19 expired
sclo7-sclo-php73-sclo-el7-build-78834-455404 2020-07-08 06:50:12 expired
cloud7-openstack-train-el7-build-78785-452677 2020-07-03 05:31:54 expired
cloud7-openstack-train-el7-build-78779-452677 2020-07-03 05:08:49 expired
cloud7-openstack-stein-el7-build-78764-452180 2020-07-02 05:55:34 expired
cloud7-openstack-stein-el7-build-78763-451676 2020-07-01 16:57:41 expired
sclo7-sclo-php72-sclo-el7-build-78759-452006 2020-07-01 06:56:26 expired
sclo7-sclo-php72-sclo-el7-build-78758-452006 2020-07-01 06:53:37 expired
sclo7-sclo-php73-sclo-el7-build-78756-452007 2020-07-01 06:53:21 expired
cloud7-openstack-train-el7-build-78754-452120 2020-07-01 06:49:33 expired
cloud7-openstack-train-el7-build-78749-451184 2020-06-30 20:25:51 expired
sclo7-rh-nodejs8-rh-el7-build-78748-451464 2020-06-30 12:47:01 expired
sclo7-rh-maven36-rh-el7-build-78747-451446 2020-06-30 12:41:27 expired
sclo7-rh-maven36-rh-el7-build-78746-451446 2020-06-30 12:38:39 expired
sclo7-rh-maven36-rh-el7-build-78745-451446 2020-06-30 12:35:24 expired
sclo7-rh-maven36-rh-el7-build-78744-451446 2020-06-30 12:32:06 expired